Pagrindinis puslapis
METAR-TAF:

METAR-TAF

Oro uostai :

Florianopolis, Santa Katarina, Brazilija

platuma: 27-40S, ilguma: 048-33W, Aukštis: 5 m

Dabartinis oras

Ataskaita buvo paskelbta 27 minutes, ne 15:00 UTC
Vėjas 9 kt iš Pietryčių
Temperatūra 19°C
Drėgmė 60%
Slėgis 1027 hPa
Matomumas 10 km arba daugiau
Išsisklaidę debesys ne aukštis 3000 ft
Apsiniaukę ne aukštis 4000 ft

METAR: SBFL 161500Z 13009KT 9999 SCT030 OVC040 19/11 Q1027

Laikas: 12:27 (15:27 UTC)

Prognozė

Ataskaita buvo paskelbta 6 valandos ir 27 minutes, ne 09:00 UTC
Prognozė galioja nuo 16 metu 12 UTC su 17 metu 12 UTC
Vėjas 12 kt iš Pietų
Matomumas 10 km arba daugiau
Su prošvaistėmis ne aukštis 2000 ft
Tikimybė 40% :
Laikinai
nuo 16 metu 12 UTC su 16 metu 15 UTC
Matomumas: 8000 m
lietus
Tapsmas
nuo 16 metu 22 UTC su 16 metu 24 UTC
Vėjas 12 kt iš Pietų
Išsisklaidę debesys ne aukštis 2000 ft

TAF: SBFL 160900Z 1612/1712 17012KT 9999 BKN020 TX22/1617Z TN18/1706Z PROB40 TEMPO 1612/1615 8000 RA BECMG 1622/1624 18012KT SCT020 RMK PCQ

Orai ataskaitas ir orų prognozės (METAR, TAF).

turimą stotys yra geltonos ir raudonos taškus žemėlapyje.

Perkelti pele per norėdami pamatyti stoties vardą.

Tada spustelėkite, norėdami matyti oro stebėjimo ir prognozės.

Norėdami pakeisti žemėlapį: spustelėkite ant žalios mygtukų su juodo kryžiaus žemyn,; žalią mygtuką su brūkšneliu, jei norite nutolinti; arba žalių rodyklių gretimoms žemėlapius.


METAR-TAF: